createdAt,value
2019-02-28T00:01:55.662Z,122.97
2019-02-28T00:04:26.247Z,122.07
2019-02-28T00:06:57.068Z,123.13
2019-02-28T00:09:27.930Z,121.70
2019-02-28T00:11:58.386Z,122.07
2019-02-28T00:14:28.968Z,121.37
2019-02-28T00:17:01.709Z,123.37
2019-02-28T00:19:32.398Z,124.23
2019-02-28T00:22:03.330Z,122.57
2019-02-28T00:24:34.397Z,123.07
2019-02-28T00:27:05.490Z,121.37
2019-02-28T00:29:37.051Z,120.67
2019-02-28T00:32:07.873Z,121.60
2019-02-28T00:34:39.355Z,122.43
2019-02-28T00:37:10.660Z,123.83
2019-02-28T00:39:41.437Z,123.23
2019-02-28T00:42:12.175Z,124.43
2019-02-28T00:44:43.017Z,121.80
2019-02-28T00:47:16.497Z,123.37
2019-02-28T00:49:50.265Z,123.37
2019-02-28T00:52:21.259Z,120.93
2019-02-28T00:54:52.514Z,123.47
2019-02-28T00:57:23.884Z,122.17
2019-02-28T00:59:56.341Z,123.07
2019-02-28T01:02:26.950Z,122.07
2019-02-28T01:04:57.548Z,121.27
2019-02-28T01:07:28.874Z,120.47
2019-02-28T01:10:01.509Z,121.10
2019-02-28T01:12:33.370Z,121.70
2019-02-28T01:15:04.056Z,121.10
2019-02-28T01:17:36.304Z,121.63
2019-02-28T01:20:07.455Z,120.53
2019-02-28T01:22:38.464Z,120.33
2019-02-28T01:25:10.419Z,122.07
2019-02-28T01:27:40.950Z,119.77
2019-02-28T01:30:11.998Z,122.00
2019-02-28T01:32:42.476Z,121.23
2019-02-28T01:35:13.415Z,119.73
2019-02-28T01:37:43.979Z,122.60
2019-02-28T01:40:14.597Z,121.13
2019-02-28T01:42:45.030Z,120.37
2019-02-28T01:45:16.064Z,120.37
2019-02-28T01:47:46.938Z,122.47
2019-02-28T01:50:17.760Z,122.30
2019-02-28T01:52:48.589Z,122.90
2019-02-28T01:55:19.211Z,121.30
2019-02-28T01:57:49.988Z,123.53
2019-02-28T02:00:23.723Z,121.93
2019-02-28T02:02:52.601Z,120.93
2019-02-28T02:05:23.291Z,123.53
2019-02-28T02:07:54.081Z,121.30
2019-02-28T02:10:25.199Z,122.43
2019-02-28T02:12:56.064Z,119.70
2019-02-28T02:15:26.724Z,120.80
2019-02-28T02:17:57.689Z,120.73
2019-02-28T02:20:28.499Z,121.30
2019-02-28T02:22:59.485Z,121.10
2019-02-28T02:25:30.578Z,121.63
2019-02-28T02:28:01.726Z,120.37
2019-02-28T02:30:32.487Z,123.63
2019-02-28T02:33:03.038Z,122.13
2019-02-28T02:35:33.739Z,120.67
2019-02-28T02:38:04.842Z,121.23
2019-02-28T02:40:35.863Z,121.07
2019-02-28T02:43:06.611Z,120.03
2019-02-28T02:45:41.682Z,123.10
2019-02-28T02:48:09.261Z,120.47
2019-02-28T02:50:39.768Z,122.93
2019-02-28T02:53:10.316Z,120.70
2019-02-28T02:55:40.904Z,122.70
2019-02-28T02:58:11.400Z,121.47
2019-02-28T03:00:41.805Z,120.27
2019-02-28T03:03:12.389Z,123.57
2019-02-28T03:05:42.893Z,122.60
2019-02-28T03:08:13.373Z,120.50
2019-02-28T03:10:44.003Z,123.37
2019-02-28T03:13:15.785Z,121.93
2019-02-28T03:15:46.304Z,120.50
2019-02-28T03:18:20.428Z,121.27
2019-02-28T03:20:48.832Z,121.57
2019-02-28T03:23:19.353Z,121.30
2019-02-28T03:25:49.960Z,120.63
2019-02-28T03:28:20.477Z,119.93
2019-02-28T03:30:50.997Z,121.10
2019-02-28T03:33:27.379Z,123.00
2019-02-28T03:35:53.697Z,121.07
2019-02-28T03:38:24.179Z,119.93
2019-02-28T03:40:54.819Z,122.23
2019-02-28T03:43:25.226Z,120.23
2019-02-28T03:45:55.684Z,122.80
2019-02-28T03:48:26.141Z,120.80
2019-02-28T03:50:56.738Z,121.10
2019-02-28T03:53:27.233Z,122.20
2019-02-28T03:55:57.686Z,120.93
2019-02-28T03:58:28.172Z,120.40
2019-02-28T04:00:58.641Z,120.87
2019-02-28T04:03:33.326Z,119.90
2019-02-28T04:06:03.795Z,121.40
2019-02-28T04:08:33.383Z,121.03
2019-02-28T04:11:03.906Z,123.00
2019-02-28T04:13:34.593Z,120.57
2019-02-28T04:16:08.967Z,121.30
2019-02-28T04:18:44.153Z,120.17
2019-02-28T04:21:10.667Z,121.00
2019-02-28T04:23:41.565Z,120.40
2019-02-28T04:26:12.202Z,122.07
2019-02-28T04:28:42.656Z,121.63
2019-02-28T04:31:18.440Z,121.37
2019-02-28T04:33:45.203Z,121.43
2019-02-28T04:36:15.666Z,122.33
2019-02-28T04:38:46.170Z,121.93
2019-02-28T04:41:16.554Z,122.87
2019-02-28T04:43:46.940Z,122.40
2019-02-28T04:46:17.673Z,122.97
2019-02-28T04:48:48.431Z,121.67
2019-02-28T04:51:19.693Z,121.63
2019-02-28T04:53:52.835Z,122.60
2019-02-28T04:56:23.070Z,123.13
2019-02-28T04:58:56.427Z,121.83
2019-02-28T05:01:26.823Z,121.93
2019-02-28T05:03:59.178Z,121.80
2019-02-28T05:06:29.461Z,121.13
2019-02-28T05:08:59.977Z,123.47
2019-02-28T05:11:31.472Z,123.77
2019-02-28T05:14:02.984Z,122.10
2019-02-28T05:16:33.514Z,122.27
2019-02-28T05:19:04.094Z,121.27
2019-02-28T05:21:34.597Z,121.87
2019-02-28T05:24:07.709Z,121.10
2019-02-28T05:26:40.541Z,122.30
2019-02-28T05:29:11.925Z,120.37
2019-02-28T05:31:44.805Z,119.87
2019-02-28T05:34:16.016Z,120.43
2019-02-28T05:36:47.193Z,120.70
2019-02-28T05:39:17.648Z,119.77
2019-02-28T05:41:51.469Z,122.57
2019-02-28T05:44:21.945Z,120.13
2019-02-28T05:46:57.795Z,121.37
2019-02-28T05:49:25.069Z,122.67
2019-02-28T05:51:58.816Z,121.40
2019-02-28T05:54:27.765Z,120.83
2019-02-28T05:56:58.245Z,121.10
2019-02-28T05:59:30.041Z,121.00
2019-02-28T06:02:00.826Z,122.97
2019-02-28T06:04:31.259Z,120.40
2019-02-28T06:07:03.331Z,121.33
2019-02-28T06:09:35.141Z,121.83
2019-02-28T06:12:06.614Z,120.73
2019-02-28T06:14:37.869Z,123.47
2019-02-28T06:17:08.327Z,120.10
2019-02-28T06:19:40.229Z,120.63
2019-02-28T06:22:10.962Z,119.20
2019-02-28T06:24:44.816Z,120.63
2019-02-28T06:27:41.522Z,119.07
2019-02-28T06:30:08.852Z,117.97
2019-02-28T06:32:41.133Z,120.13
2019-02-28T06:35:16.065Z,119.27
2019-02-28T06:37:43.638Z,119.13
2019-02-28T06:40:15.904Z,119.40
2019-02-28T06:42:47.536Z,121.43
2019-02-28T06:45:18.289Z,120.63
2019-02-28T06:47:50.106Z,120.10
2019-02-28T06:50:20.720Z,120.63
2019-02-28T06:52:51.439Z,121.10
2019-02-28T06:55:25.541Z,120.80
2019-02-28T06:57:58.786Z,121.27
2019-02-28T07:00:29.072Z,119.30
2019-02-28T07:03:03.379Z,120.33
2019-02-28T07:05:31.670Z,119.37
2019-02-28T07:08:02.126Z,118.30
2019-02-28T07:10:35.636Z,120.90
2019-02-28T07:13:06.492Z,120.03
2019-02-28T07:15:39.856Z,119.60
2019-02-28T07:18:10.282Z,119.73
2019-02-28T07:20:40.799Z,121.03
2019-02-28T07:23:11.319Z,120.77
2019-02-28T07:25:44.284Z,119.40
2019-02-28T07:28:13.929Z,119.03
2019-02-28T07:30:44.395Z,120.10
2019-02-28T07:33:14.904Z,119.23
2019-02-28T07:35:45.673Z,120.73
2019-02-28T07:38:16.101Z,117.93
2019-02-28T07:40:49.576Z,118.43
2019-02-28T07:43:19.629Z,118.70
2019-02-28T07:45:52.203Z,118.13
2019-02-28T07:48:26.858Z,119.30
2019-02-28T07:50:54.488Z,118.30
2019-02-28T07:53:24.955Z,118.37
2019-02-28T07:55:55.555Z,117.10
2019-02-28T07:58:26.606Z,118.13
2019-02-28T08:00:58.169Z,119.40
2019-02-28T08:03:28.660Z,116.97
2019-02-28T08:06:04.560Z,117.27
2019-02-28T08:08:31.831Z,117.80
2019-02-28T08:11:03.880Z,118.37
2019-02-28T08:13:34.575Z,119.47
2019-02-28T08:16:06.472Z,118.90
2019-02-28T08:18:36.862Z,116.10
2019-02-28T08:21:08.764Z,119.70
2019-02-28T08:23:39.918Z,116.60
2019-02-28T08:26:10.374Z,119.90
2019-02-28T08:28:42.329Z,120.60
2019-02-28T08:31:12.825Z,118.30
2019-02-28T08:33:43.532Z,119.13
2019-02-28T08:36:14.006Z,119.30
2019-02-28T08:38:44.561Z,119.13
2019-02-28T08:41:15.050Z,118.40
2019-02-28T08:43:47.840Z,118.20
2019-02-28T08:46:17.604Z,117.10
2019-02-28T08:48:48.221Z,115.77
2019-02-28T08:51:18.758Z,115.87
2019-02-28T08:53:51.273Z,117.30
2019-02-28T08:56:21.343Z,118.23
2019-02-28T08:58:51.974Z,116.80
2019-02-28T09:01:22.523Z,117.97
2019-02-28T09:03:53.752Z,115.77
2019-02-28T09:06:24.190Z,116.97
2019-02-28T09:08:56.609Z,118.87
2019-02-28T09:11:27.378Z,117.67
2019-02-28T09:13:57.911Z,117.00
2019-02-28T09:16:28.748Z,116.60
2019-02-28T09:19:00.929Z,114.83
2019-02-28T09:21:31.754Z,117.70
2019-02-28T09:24:02.366Z,117.87
2019-02-28T09:26:32.742Z,116.33
2019-02-28T09:29:03.290Z,115.43
2019-02-28T09:31:38.718Z,115.50
2019-02-28T09:34:09.183Z,119.75
2019-02-28T09:36:39.309Z,116.57
2019-02-28T09:39:09.893Z,119.25
2019-02-28T09:41:41.305Z,118.25
2019-02-28T09:44:11.900Z,118.08
2019-02-28T09:46:42.490Z,115.52
2019-02-28T09:49:13.118Z,114.25
2019-02-28T09:51:44.716Z,118.22
2019-02-28T09:54:15.396Z,117.13
2019-02-28T09:56:46.221Z,114.32
2019-02-28T09:59:17.321Z,117.85
2019-02-28T10:01:48.135Z,117.20
2019-02-28T10:04:19.043Z,117.25
2019-02-28T10:06:51.561Z,116.73
2019-02-28T10:09:22.668Z,119.33
2019-02-28T10:11:53.388Z,118.87
2019-02-28T10:14:25.679Z,118.08
2019-02-28T10:16:56.362Z,120.90
2019-02-28T10:19:27.597Z,120.77
2019-02-28T10:21:58.448Z,118.75
2019-02-28T10:24:31.465Z,123.05
2019-02-28T10:27:03.460Z,118.70
2019-02-28T10:29:34.426Z,119.70
2019-02-28T10:32:06.158Z,119.25
2019-02-28T10:34:37.360Z,118.05
2019-02-28T10:37:07.882Z,120.00
2019-02-28T10:39:40.224Z,115.72
2019-02-28T10:42:10.822Z,117.47
2019-02-28T10:44:41.473Z,115.90
2019-02-28T10:47:12.239Z,116.35
2019-02-28T10:49:42.825Z,117.45
2019-02-28T10:52:13.383Z,117.82
2019-02-28T10:54:48.394Z,118.55
2019-02-28T10:57:16.917Z,116.05
2019-02-28T10:59:49.362Z,116.03
2019-02-28T11:02:20.197Z,118.20
2019-02-28T11:04:50.980Z,113.52
2019-02-28T11:07:21.723Z,120.00
2019-02-28T11:09:55.533Z,115.60
2019-02-28T11:12:26.691Z,114.30
2019-02-28T11:14:57.252Z,112.32
2019-02-28T11:17:30.422Z,114.08
2019-02-28T11:20:00.032Z,117.10
2019-02-28T11:22:30.478Z,116.30
2019-02-28T11:25:02.114Z,118.67
2019-02-28T11:27:32.811Z,116.67
2019-02-28T11:30:03.464Z,118.37
2019-02-28T11:32:34.337Z,117.28
2019-02-28T11:35:05.482Z,122.70
2019-02-28T11:37:36.449Z,119.13
2019-02-28T11:40:10.424Z,117.30
2019-02-28T11:42:41.037Z,119.57
2019-02-28T11:45:18.514Z,116.75
2019-02-28T11:47:48.769Z,117.75
2019-02-28T11:50:19.243Z,119.75
2019-02-28T11:52:49.811Z,124.10
2019-02-28T11:55:21.285Z,118.57
2019-02-28T11:57:52.318Z,116.50
2019-02-28T12:00:25.641Z,120.15
2019-02-28T12:02:59.713Z,122.85
2019-02-28T12:05:28.669Z,121.05
2019-02-28T12:07:59.271Z,117.20
2019-02-28T12:10:29.737Z,119.57
2019-02-28T12:13:00.360Z,118.35
2019-02-28T12:15:31.054Z,120.13
2019-02-28T12:18:04.751Z,119.30
2019-02-28T12:20:34.978Z,122.22
2019-02-28T12:23:05.388Z,119.28
2019-02-28T12:25:35.879Z,119.17
2019-02-28T12:28:06.919Z,122.85
2019-02-28T12:30:37.398Z,122.00
2019-02-28T12:33:07.945Z,125.55
2019-02-28T12:35:40.654Z,122.92
2019-02-28T12:38:11.274Z,119.72
2019-02-28T12:40:42.462Z,121.67
2019-02-28T12:43:14.096Z,121.10
2019-02-28T12:45:47.114Z,121.60
2019-02-28T12:48:17.036Z,120.85
2019-02-28T12:50:47.512Z,121.25
2019-02-28T12:53:18.154Z,121.87
2019-02-28T12:55:48.769Z,122.65
2019-02-28T12:58:19.224Z,118.62
2019-02-28T13:00:49.930Z,119.77
2019-02-28T13:03:21.200Z,123.80
2019-02-28T13:05:51.961Z,120.95
2019-02-28T13:08:22.597Z,122.87
2019-02-28T13:10:54.008Z,122.35
2019-02-28T13:13:27.640Z,118.45
2019-02-28T13:15:56.652Z,122.72
2019-02-28T13:18:27.147Z,119.45
2019-02-28T13:20:57.635Z,121.45
2019-02-28T13:23:28.172Z,123.45
2019-02-28T13:25:59.958Z,122.15
2019-02-28T13:28:30.815Z,119.57
2019-02-28T13:31:01.320Z,121.30
2019-02-28T13:33:32.117Z,121.50
2019-02-28T13:36:02.573Z,120.33
2019-02-28T13:38:33.026Z,120.85
2019-02-28T13:41:03.909Z,122.07
2019-02-28T13:43:34.369Z,117.90
2019-02-28T13:46:04.863Z,121.77
2019-02-28T13:48:35.431Z,120.80
2019-02-28T13:51:08.493Z,123.97
2019-02-28T13:53:39.135Z,122.15
2019-02-28T13:56:09.635Z,122.30
2019-02-28T13:58:40.357Z,122.17
2019-02-28T14:01:10.846Z,122.98
2019-02-28T14:03:42.220Z,119.60
2019-02-28T14:06:18.950Z,120.17
2019-02-28T14:08:47.520Z,120.70
2019-02-28T14:11:18.909Z,123.18
2019-02-28T14:13:49.678Z,123.33
2019-02-28T14:16:20.276Z,124.10
2019-02-28T14:18:51.012Z,121.47
2019-02-28T14:21:21.696Z,121.10
2019-02-28T14:23:52.479Z,119.35
2019-02-28T14:26:24.696Z,118.28
2019-02-28T14:28:55.535Z,121.05
2019-02-28T14:31:26.317Z,119.42
2019-02-28T14:33:57.106Z,122.20
2019-02-28T14:36:27.736Z,119.50
2019-02-28T14:38:58.401Z,119.53
2019-02-28T14:41:31.818Z,122.90
2019-02-28T14:44:01.267Z,121.05
2019-02-28T14:46:34.641Z,122.58
2019-02-28T14:49:04.970Z,123.70
2019-02-28T14:51:35.565Z,119.30
2019-02-28T14:54:06.164Z,121.65
2019-02-28T14:56:39.528Z,120.55
2019-02-28T14:59:10.214Z,119.22
2019-02-28T15:01:40.768Z,119.20
2019-02-28T15:04:11.490Z,121.05
2019-02-28T15:06:41.928Z,118.40
2019-02-28T15:09:18.983Z,118.05
2019-02-28T15:11:49.651Z,118.87
2019-02-28T15:14:20.202Z,119.60
2019-02-28T15:16:50.733Z,120.05
2019-02-28T15:19:24.312Z,120.75
2019-02-28T15:21:53.660Z,121.75
2019-02-28T15:24:24.253Z,121.00
2019-02-28T15:26:54.788Z,122.17
2019-02-28T15:29:26.877Z,121.30
2019-02-28T15:31:57.553Z,120.50
2019-02-28T15:34:28.186Z,123.28
2019-02-28T15:36:59.349Z,124.38
2019-02-28T15:39:31.869Z,119.47
2019-02-28T15:42:02.305Z,122.82
2019-02-28T15:44:32.804Z,122.02
2019-02-28T15:47:06.457Z,121.22
2019-02-28T15:49:37.001Z,123.15
2019-02-28T15:52:07.748Z,121.45
2019-02-28T15:54:38.288Z,125.10
2019-02-28T15:57:08.888Z,120.20
2019-02-28T15:59:39.686Z,120.95
2019-02-28T16:02:10.506Z,120.37
2019-02-28T16:04:41.097Z,120.65
2019-02-28T16:07:11.569Z,124.85
2019-02-28T16:09:42.121Z,121.75
2019-02-28T16:12:15.176Z,121.77
2019-02-28T16:14:46.376Z,120.45
2019-02-28T16:17:16.888Z,120.97
2019-02-28T16:19:48.449Z,123.28
2019-02-28T16:22:19.096Z,121.40
2019-02-28T16:24:50.815Z,121.53
2019-02-28T16:27:21.434Z,123.22
2019-02-28T16:29:55.333Z,121.95
2019-02-28T16:32:25.351Z,122.22
2019-02-28T16:34:55.962Z,122.28
2019-02-28T16:37:26.651Z,121.65
2019-02-28T16:39:57.106Z,124.82
2019-02-28T16:42:27.604Z,121.37
2019-02-28T16:44:58.295Z,123.10
2019-02-28T16:47:29.974Z,124.15
2019-02-28T16:50:00.628Z,122.72
2019-02-28T16:52:31.218Z,125.27
2019-02-28T16:55:01.688Z,127.05
2019-02-28T16:57:33.377Z,121.60
2019-02-28T17:00:07.580Z,122.55
2019-02-28T17:02:37.046Z,122.95
2019-02-28T17:05:08.697Z,125.70
2019-02-28T17:07:46.792Z,122.10
2019-02-28T17:10:18.169Z,123.55
2019-02-28T17:13:11.890Z,121.45
2019-02-28T17:15:55.862Z,127.30
2019-02-28T17:18:25.746Z,124.78
2019-02-28T17:20:56.241Z,128.05
2019-02-28T17:23:26.850Z,125.22
2019-02-28T17:25:57.611Z,123.95
2019-02-28T17:28:37.100Z,124.00
2019-02-28T17:31:48.241Z,124.62
2019-02-28T17:34:23.708Z,124.15
2019-02-28T17:36:53.122Z,125.97
2019-02-28T17:39:24.010Z,124.82
2019-02-28T17:41:54.708Z,126.15
2019-02-28T17:44:49.837Z,124.82
2019-02-28T17:47:36.707Z,122.87
2019-02-28T17:50:43.968Z,127.47
2019-02-28T17:54:01.517Z,123.95
2019-02-28T17:57:24.793Z,124.80
2019-02-28T18:01:00.874Z,123.97
2019-02-28T18:04:17.561Z,121.77
2019-02-28T18:07:34.339Z,125.05
2019-02-28T18:10:49.209Z,123.97
2019-02-28T18:14:27.795Z,124.90
2019-02-28T18:17:49.196Z,125.40
2019-02-28T18:21:04.155Z,124.62
2019-02-28T18:24:13.826Z,123.05
2019-02-28T18:27:28.132Z,124.72
2019-02-28T18:30:50.751Z,123.95
2019-02-28T18:33:21.389Z,125.55
2019-02-28T18:35:52.444Z,125.25
2019-02-28T18:38:24.155Z,125.85
2019-02-28T18:40:54.763Z,124.55
2019-02-28T18:43:33.991Z,124.12
2019-02-28T18:46:09.167Z,124.27
2019-02-28T18:48:42.656Z,124.27
2019-02-28T18:51:13.213Z,124.82
2019-02-28T18:53:46.452Z,125.40
2019-02-28T18:56:17.218Z,122.75
2019-02-28T18:58:47.994Z,124.75
2019-02-28T19:01:18.809Z,124.62
2019-02-28T19:03:49.470Z,122.22
2019-02-28T19:06:25.902Z,124.85
2019-02-28T19:08:59.503Z,127.27
2019-02-28T19:11:30.497Z,124.45
2019-02-28T19:14:01.146Z,125.10
2019-02-28T19:16:31.670Z,127.75
2019-02-28T19:19:03.674Z,125.90
2019-02-28T19:21:34.300Z,125.97
2019-02-28T19:24:04.806Z,125.78
2019-02-28T19:26:35.436Z,123.58
2019-02-28T19:29:07.636Z,123.87
2019-02-28T19:31:40.370Z,128.23
2019-02-28T19:34:11.195Z,126.20
2019-02-28T19:36:41.801Z,122.10
2019-02-28T19:39:12.439Z,123.65
2019-02-28T19:41:43.150Z,123.33
2019-02-28T19:44:13.763Z,124.07
2019-02-28T19:46:44.688Z,123.58
2019-02-28T19:49:15.320Z,122.13
2019-02-28T19:51:46.242Z,120.40
2019-02-28T19:54:19.945Z,121.02
2019-02-28T19:56:50.610Z,120.53
2019-02-28T19:59:21.218Z,121.10
2019-02-28T20:01:51.838Z,121.90
2019-02-28T20:04:23.475Z,123.78
2019-02-28T20:06:54.158Z,123.82
2019-02-28T20:09:25.817Z,123.40
2019-02-28T20:11:56.621Z,121.15
2019-02-28T20:14:28.079Z,121.75
2019-02-28T20:17:01.490Z,121.28
2019-02-28T20:19:33.155Z,128.18
2019-02-28T20:22:06.061Z,125.20
2019-02-28T20:24:36.627Z,123.82
2019-02-28T20:27:07.189Z,122.60
2019-02-28T20:29:37.687Z,121.53
2019-02-28T20:32:08.549Z,123.60
2019-02-28T20:34:39.094Z,121.82
2019-02-28T20:37:09.987Z,126.47
2019-02-28T20:39:40.569Z,124.65
2019-02-28T20:42:11.250Z,123.42
2019-02-28T20:44:41.978Z,122.72
2019-02-28T20:47:12.612Z,125.70
2019-02-28T20:49:43.202Z,122.07
2019-02-28T20:52:13.874Z,123.13
2019-02-28T20:54:44.487Z,122.42
2019-02-28T20:57:18.036Z,123.15
2019-02-28T20:59:48.637Z,122.72
2019-02-28T21:02:19.224Z,124.18
2019-02-28T21:04:49.750Z,123.78
2019-02-28T21:07:20.357Z,123.50
2019-02-28T21:09:51.030Z,125.15
2019-02-28T21:12:21.694Z,122.75
2019-02-28T21:14:52.436Z,121.85
2019-02-28T21:17:29.377Z,124.67
2019-02-28T21:19:55.629Z,123.80
2019-02-28T21:22:26.272Z,123.67
2019-02-28T21:24:59.845Z,122.80
2019-02-28T21:27:31.535Z,122.90
2019-02-28T21:30:10.411Z,121.37
2019-02-28T21:32:45.873Z,121.75
2019-02-28T21:35:17.552Z,124.45
2019-02-28T21:37:48.765Z,122.13
2019-02-28T21:40:19.861Z,121.67
2019-02-28T21:42:50.841Z,123.35
2019-02-28T21:45:21.472Z,125.12
2019-02-28T21:47:52.079Z,121.30
2019-02-28T21:50:24.395Z,124.82
2019-02-28T21:52:55.063Z,123.62
2019-02-28T21:55:25.787Z,123.62
2019-02-28T21:57:56.539Z,121.42
2019-02-28T22:00:27.452Z,123.58
2019-02-28T22:02:58.027Z,123.28
2019-02-28T22:05:28.793Z,124.22
2019-02-28T22:07:59.369Z,122.28
2019-02-28T22:10:30.087Z,122.85
2019-02-28T22:13:00.617Z,125.02
2019-02-28T22:15:31.311Z,124.75
2019-02-28T22:18:01.761Z,124.12
2019-02-28T22:20:32.276Z,123.50
2019-02-28T22:23:02.748Z,121.50
2019-02-28T22:25:33.283Z,122.47
2019-02-28T22:28:03.845Z,122.17
2019-02-28T22:31:02.414Z,122.80
2019-02-28T22:33:56.639Z,125.72
2019-02-28T22:36:33.664Z,122.80
2019-02-28T22:39:05.513Z,122.20
2019-02-28T22:41:37.665Z,123.30
2019-02-28T22:44:09.156Z,124.92
2019-02-28T22:46:39.673Z,123.28
2019-02-28T22:49:10.112Z,123.13
2019-02-28T22:51:40.532Z,123.10
2019-02-28T22:54:11.001Z,123.58
2019-02-28T22:56:41.463Z,122.42
2019-02-28T22:59:11.953Z,123.38
2019-02-28T23:01:43.560Z,124.05
2019-02-28T23:04:14.115Z,122.98
2019-02-28T23:06:44.656Z,124.33
2019-02-28T23:09:15.213Z,124.53
2019-02-28T23:11:45.852Z,125.07
2019-02-28T23:14:16.253Z,124.22
2019-02-28T23:16:47.164Z,126.20
2019-02-28T23:19:17.737Z,127.55
2019-02-28T23:21:48.293Z,126.20
2019-02-28T23:24:19.064Z,125.58
2019-02-28T23:27:14.345Z,124.38
2019-02-28T23:30:28.992Z,123.65
2019-02-28T23:33:02.750Z,124.22
2019-02-28T23:35:36.369Z,124.50
2019-02-28T23:38:07.081Z,122.62
2019-02-28T23:40:37.644Z,124.07
2019-02-28T23:43:08.552Z,122.33
2019-02-28T23:45:39.156Z,123.78
2019-02-28T23:48:09.730Z,125.87
2019-02-28T23:50:40.200Z,122.87
2019-02-28T23:53:10.730Z,125.97
2019-02-28T23:55:41.341Z,126.05
2019-02-28T23:58:11.849Z,126.53
